Time;durP1;ratioP1;P1;durP2;ratioP2;P2;SDS_P1;SDS_P2;PMS_P1;PMS_P2;Temp;Humidity;BMP_temperature;BMP_pressure;BME280_temperature;BME280_humidity;BME280_pressure;Samples;Min_cycle;Max_cycle;Signal;HPM_P1;HPM_P2
2022/08/14 00:00:09;;;;;;;;;;;23.10;65.20;;;;;;6218755;23;1950;-63
2022/08/14 00:02:35;;;;;;;;;;;23.10;65.30;;;;;;6245002;23;1199;-63
2022/08/14 00:05:00;;;;;;;;;;;23.10;65.30;;;;;;6245515;23;1009;-64
2022/08/14 00:07:26;;;;;;;;;;;23.10;65.20;;;;;;6245353;23;1013;-64
2022/08/14 00:09:52;;;;;;;;;;;23.10;65.30;;;;;;6245519;23;1005;-63
2022/08/14 00:12:18;;;;;;;;;;;23.10;65.30;;;;;;6245539;23;1280;-64
2022/08/14 00:14:44;;;;;;;;;;;23.10;65.30;;;;;;6245062;23;835;-63
2022/08/14 00:17:09;;;;;;;;;;;23.10;65.30;;;;;;6244994;23;796;-63
2022/08/14 00:19:34;;;;;;;;;;;23.10;65.30;;;;;;6245903;23;1996;-64
2022/08/14 00:22:00;;;;;;;;;;;23.10;65.30;;;;;;6244731;23;1278;-63
2022/08/14 00:24:25;;;;;;;;;;;23.10;65.30;;;;;;6246360;23;833;-64
2022/08/14 00:26:52;;;;;;;;;;;23.10;65.30;;;;;;6245609;23;868;-63
2022/08/14 00:29:17;;;;;;;;;;;23.10;65.30;;;;;;6246020;23;764;-64
2022/08/14 00:31:43;;;;;;;;;;;23.10;65.30;;;;;;6245801;23;803;-63
2022/08/14 00:34:08;;;;;;;;;;;23.10;65.30;;;;;;6245583;23;1163;-64
2022/08/14 00:36:33;;;;;;;;;;;23.10;65.30;;;;;;6245171;23;820;-64
2022/08/14 00:38:59;;;;;;;;;;;23.10;65.40;;;;;;6219230;23;1943;-64
2022/08/14 00:41:28;;;;;;;;;;;23.10;65.30;;;;;;6245739;23;820;-65
2022/08/14 00:43:54;;;;;;;;;;;23.10;65.40;;;;;;6245611;23;1201;-65
2022/08/14 00:46:19;;;;;;;;;;;23.10;65.40;;;;;;6218380;23;872;-63
2022/08/14 00:48:45;;;;;;;;;;;23.10;65.40;;;;;;6245646;23;867;-64
2022/08/14 00:51:10;;;;;;;;;;;23.10;65.40;;;;;;6245569;23;1030;-64
2022/08/14 00:53:36;;;;;;;;;;;23.10;65.40;;;;;;6245698;23;1188;-64
2022/08/14 00:56:02;;;;;;;;;;;23.10;65.40;;;;;;6245099;23;1019;-65
2022/08/14 00:58:31;;;;;;;;;;;23.10;65.40;;;;;;6245342;23;1909;-64
2022/08/14 01:00:57;;;;;;;;;;;23.10;65.40;;;;;;6218191;23;1176;-62
2022/08/14 01:03:23;;;;;;;;;;;23.10;65.40;;;;;;6245440;23;1218;-64
2022/08/14 01:05:49;;;;;;;;;;;23.10;65.40;;;;;;6218231;23;1057;-64
2022/08/14 01:08:21;;;;;;;;;;;23.00;65.30;;;;;;6245388;23;994;-63
2022/08/14 01:10:49;;;;;;;;;;;23.10;65.40;;;;;;6245419;23;1009;-63
2022/08/14 01:13:16;;;;;;;;;;;23.10;65.40;;;;;;6245242;23;1210;-63
2022/08/14 01:15:42;;;;;;;;;;;23.10;65.40;;;;;;6245240;23;784;-63
2022/08/14 01:21:10;;;;;;;;;;;23.10;65.40;;;;;;6245554;23;567;-63
2022/08/14 01:23:38;;;;;;;;;;;23.10;65.50;;;;;;6245749;23;1262;-63
2022/08/14 01:26:03;;;;;;;;;;;23.00;65.40;;;;;;6244994;23;765;-64
2022/08/14 01:28:30;;;;;;;;;;;23.00;65.40;;;;;;6245750;23;898;-63
2022/08/14 01:30:56;;;;;;;;;;;23.00;65.40;;;;;;6245384;23;937;-63
2022/08/14 01:33:27;;;;;;;;;;;23.10;65.40;;;;;;6245811;23;1290;-63
2022/08/14 01:35:55;;;;;;;;;;;23.10;65.50;;;;;;6245112;23;851;-63
2022/08/14 01:38:22;;;;;;;;;;;23.00;65.40;;;;;;6245575;23;1893;-64
2022/08/14 01:40:47;;;;;;;;;;;23.00;65.40;;;;;;6245789;23;825;-64
2022/08/14 01:43:14;;;;;;;;;;;23.00;65.40;;;;;;6245259;23;1263;-64
2022/08/14 01:45:40;;;;;;;;;;;23.00;65.40;;;;;;6245366;23;857;-63
2022/08/14 01:48:05;;;;;;;;;;;23.00;65.40;;;;;;6245748;23;911;-64
2022/08/14 01:50:31;;;;;;;;;;;23.00;65.40;;;;;;6247591;23;906;-63
2022/08/14 01:52:56;;;;;;;;;;;23.10;65.50;;;;;;6247027;23;1215;-63
2022/08/14 01:55:22;;;;;;;;;;;23.10;65.50;;;;;;6247148;23;859;-63
2022/08/14 01:57:47;;;;;;;;;;;23.00;65.40;;;;;;6220717;23;1944;-64
2022/08/14 02:00:17;;;;;;;;;;;23.10;65.50;;;;;;6247440;23;914;-63
2022/08/14 02:02:43;;;;;;;;;;;23.00;65.40;;;;;;6247229;23;1278;-64
2022/08/14 02:05:12;;;;;;;;;;;23.00;65.50;;;;;;6247263;23;772;-63
2022/08/14 02:07:37;;;;;;;;;;;23.00;65.40;;;;;;6247181;23;837;-63
2022/08/14 02:10:03;;;;;;;;;;;23.00;65.50;;;;;;6247181;23;931;-63
2022/08/14 02:12:29;;;;;;;;;;;23.10;65.50;;;;;;6247018;23;1190;-64
2022/08/14 02:14:55;;;;;;;;;;;23.00;65.50;;;;;;6247694;23;843;-64
2022/08/14 02:17:22;;;;;;;;;;;23.00;65.50;;;;;;6246970;23;785;-64
2022/08/14 02:19:48;;;;;;;;;;;23.00;65.50;;;;;;6247348;23;1889;-63
2022/08/14 02:22:13;;;;;;;;;;;23.00;65.50;;;;;;6220029;23;1210;-63
2022/08/14 02:24:38;;;;;;;;;;;23.00;65.50;;;;;;6247250;23;780;-64
2022/08/14 02:27:04;;;;;;;;;;;23.00;65.50;;;;;;6247077;23;943;-63
2022/08/14 02:29:30;;;;;;;;;;;23.00;65.50;;;;;;6247653;23;831;-64
2022/08/14 02:31:57;;;;;;;;;;;23.10;65.60;;;;;;6247096;23;1255;-63
2022/08/14 02:34:30;;;;;;;;;;;23.00;65.50;;;;;;6247571;23;856;-63
2022/08/14 02:37:01;;;;;;;;;;;23.00;65.50;;;;;;6246564;23;855;-63
2022/08/14 02:39:27;;;;;;;;;;;23.00;65.50;;;;;;6247165;23;1893;-64
2022/08/14 02:41:53;;;;;;;;;;;23.00;65.50;;;;;;6247274;23;1204;-63
2022/08/14 02:44:21;;;;;;;;;;;23.00;65.50;;;;;;6246910;23;1307;-63
2022/08/14 02:46:47;;;;;;;;;;;23.10;65.60;;;;;;6243104;23;980;-64
2022/08/14 02:49:13;;;;;;;;;;;23.00;65.50;;;;;;6245513;23;903;-64
2022/08/14 02:51:38;;;;;;;;;;;23.00;65.50;;;;;;6246711;23;994;-64
2022/08/14 02:54:04;;;;;;;;;;;23.00;65.50;;;;;;6246711;23;1175;-63
2022/08/14 02:56:29;;;;;;;;;;;23.00;65.60;;;;;;6246729;23;793;-64
2022/08/14 02:58:55;;;;;;;;;;;23.00;65.50;;;;;;6246794;23;1896;-65
2022/08/14 03:01:21;;;;;;;;;;;23.00;65.60;;;;;;6220235;23;906;-64
2022/08/14 03:03:47;;;;;;;;;;;23.00;65.60;;;;;;6247036;23;1174;-63
2022/08/14 03:06:13;;;;;;;;;;;23.00;65.60;;;;;;6219653;23;1129;-65
2022/08/14 03:08:38;;;;;;;;;;;23.00;65.60;;;;;;6220013;23;827;-64
2022/08/14 03:11:06;;;;;;;;;;;23.00;65.60;;;;;;6246728;23;784;-63
2022/08/14 03:13:33;;;;;;;;;;;23.00;65.60;;;;;;6246932;23;1179;-63
2022/08/14 03:15:58;;;;;;;;;;;23.00;65.60;;;;;;6246280;23;851;-63
2022/08/14 03:18:25;;;;;;;;;;;23.00;65.60;;;;;;6246549;23;1892;-64
2022/08/14 03:20:50;;;;;;;;;;;23.00;65.60;;;;;;6246757;23;902;-65
2022/08/14 03:23:17;;;;;;;;;;;23.00;65.60;;;;;;6245810;23;1198;-65
2022/08/14 03:25:43;;;;;;;;;;;23.00;65.60;;;;;;6246518;23;858;-65
2022/08/14 03:28:08;;;;;;;;;;;23.00;65.60;;;;;;6246662;23;811;-65
2022/08/14 03:30:34;;;;;;;;;;;23.00;65.60;;;;;;6246746;23;1009;-65
2022/08/14 03:33:00;;;;;;;;;;;23.00;65.60;;;;;;6246194;23;1208;-64
2022/08/14 03:35:25;;;;;;;;;;;23.00;65.60;;;;;;6246770;23;841;-64
2022/08/14 03:37:51;;;;;;;;;;;23.00;65.60;;;;;;6246245;23;1893;-64
2022/08/14 03:40:20;;;;;;;;;;;23.00;65.70;;;;;;6246935;23;892;-64
2022/08/14 03:42:45;;;;;;;;;;;23.00;65.70;;;;;;6245176;22;1748;-65
2022/08/14 03:45:11;;;;;;;;;;;23.00;65.70;;;;;;6214421;23;742;-66
2022/08/14 03:47:39;;;;;;;;;;;23.00;65.70;;;;;;6215740;23;1049;-65
2022/08/14 03:50:09;;;;;;;;;;;23.00;65.70;;;;;;6216211;23;846;-65
2022/08/14 03:52:36;;;;;;;;;;;23.00;65.70;;;;;;6216344;23;796;-65
2022/08/14 03:55:02;;;;;;;;;;;23.00;65.70;;;;;;6215919;23;1569;-65
2022/08/14 03:57:31;;;;;;;;;;;23.00;65.70;;;;;;6215740;23;807;-65
2022/08/14 03:59:57;;;;;;;;;;;23.00;65.70;;;;;;6215881;23;1897;-65
2022/08/14 04:02:23;;;;;;;;;;;23.00;65.80;;;;;;6215936;23;1044;-65
2022/08/14 04:04:48;;;;;;;;;;;23.00;65.70;;;;;;6215895;23;1178;-65
2022/08/14 04:07:14;;;;;;;;;;;23.00;65.70;;;;;;6214055;23;898;-65
2022/08/14 04:09:39;;;;;;;;;;;23.00;65.70;;;;;;6215912;23;1001;-65
2022/08/14 04:12:05;;;;;;;;;;;23.00;65.70;;;;;;6214037;23;803;-66
2022/08/14 04:14:30;;;;;;;;;;;23.00;65.70;;;;;;6215575;23;1261;-66
2022/08/14 04:16:56;;;;;;;;;;;23.00;65.70;;;;;;6215760;23;854;-66
2022/08/14 04:19:22;;;;;;;;;;;23.00;65.80;;;;;;6215781;23;1892;-66
2022/08/14 04:21:49;;;;;;;;;;;23.00;65.70;;;;;;6215547;23;839;-64
2022/08/14 04:24:16;;;;;;;;;;;23.00;65.80;;;;;;6215747;23;1269;-67
2022/08/14 04:26:43;;;;;;;;;;;23.00;65.80;;;;;;6188945;23;1379;-67
2022/08/14 04:29:09;;;;;;;;;;;23.00;65.80;;;;;;6215700;23;839;-67
2022/08/14 04:31:34;;;;;;;;;;;23.00;65.80;;;;;;6215657;23;819;-67
2022/08/14 04:34:00;;;;;;;;;;;23.00;65.80;;;;;;6214001;23;1291;-66
2022/08/14 04:36:25;;;;;;;;;;;23.00;65.80;;;;;;6215413;23;779;-66
2022/08/14 04:44:19;;;;;;;;;;;23.00;65.80;;;;;;6215435;23;1187;-67
2022/08/14 04:48:11;;;;;;;;;;;23.00;65.80;;;;;;6213720;23;1049;-66
2022/08/14 04:49:30;;;;;;;;;;;23.00;65.80;;;;;;6215465;23;1022;-65
2022/08/14 04:51:55;;;;;;;;;;;23.00;65.80;;;;;;6213950;23;1042;-65
2022/08/14 04:54:21;;;;;;;;;;;23.00;65.80;;;;;;6215215;23;1200;-65
2022/08/14 04:56:47;;;;;;;;;;;23.00;65.90;;;;;;6215101;23;839;-66
2022/08/14 04:59:12;;;;;;;;;;;23.00;65.90;;;;;;6215349;23;1987;-66
2022/08/14 05:01:40;;;;;;;;;;;23.00;65.80;;;;;;6215677;23;851;-65
2022/08/14 05:04:07;;;;;;;;;;;23.00;65.80;;;;;;6215393;23;1261;-66
2022/08/14 05:06:32;;;;;;;;;;;23.00;65.90;;;;;;6215053;23;831;-66
2022/08/14 05:08:58;;;;;;;;;;;23.00;65.90;;;;;;6215495;23;879;-66
2022/08/14 05:11:23;;;;;;;;;;;23.00;65.90;;;;;;6215271;23;914;-65
2022/08/14 05:13:48;;;;;;;;;;;23.00;66.00;;;;;;6214852;23;1186;-65
2022/08/14 05:16:14;;;;;;;;;;;23.00;66.00;;;;;;6215105;23;796;-65
2022/08/14 05:18:39;;;;;;;;;;;23.00;65.90;;;;;;6215100;23;1928;-64
2022/08/14 05:21:06;;;;;;;;;;;23.00;65.90;;;;;;6215101;23;784;-65
2022/08/14 05:23:33;;;;;;;;;;;23.00;66.00;;;;;;6213554;23;1217;-66
2022/08/14 05:26:00;;;;;;;;;;;23.00;66.00;;;;;;6215145;23;842;-66
2022/08/14 05:28:26;;;;;;;;;;;23.00;65.90;;;;;;6213841;23;911;-65
2022/08/14 05:30:55;;;;;;;;;;;23.00;66.10;;;;;;6213928;23;912;-66
2022/08/14 05:33:23;;;;;;;;;;;23.00;66.00;;;;;;6215104;23;1273;-66
2022/08/14 05:35:49;;;;;;;;;;;23.00;66.10;;;;;;6213277;23;886;-66
2022/08/14 05:38:18;;;;;;;;;;;23.00;66.00;;;;;;6213610;23;1900;-66
2022/08/14 05:40:43;;;;;;;;;;;23.00;66.00;;;;;;6215360;23;651;-65
2022/08/14 05:43:09;;;;;;;;;;;23.00;66.00;;;;;;6209053;23;1266;-65
2022/08/14 05:45:34;;;;;;;;;;;23.00;66.00;;;;;;6213814;23;970;-66
2022/08/14 05:48:00;;;;;;;;;;;23.00;66.00;;;;;;6213537;23;949;-66
2022/08/14 05:50:26;;;;;;;;;;;23.00;66.00;;;;;;6213197;23;934;-66
2022/08/14 05:52:52;;;;;;;;;;;23.00;66.00;;;;;;6214622;23;1271;-66
2022/08/14 05:55:18;;;;;;;;;;;23.00;66.00;;;;;;6213556;23;812;-65
2022/08/14 05:57:47;;;;;;;;;;;23.00;66.00;;;;;;6213464;23;962;-67
2022/08/14 06:00:13;;;;;;;;;;;23.00;66.70;;;;;;6215012;23;1928;-67
2022/08/14 06:02:39;;;;;;;;;;;23.00;66.00;;;;;;6215394;23;823;-66
2022/08/14 06:05:04;;;;;;;;;;;22.90;65.90;;;;;;6214608;23;1199;-66
2022/08/14 06:07:30;;;;;;;;;;;23.00;66.00;;;;;;6215284;23;910;-66
2022/08/14 06:09:55;;;;;;;;;;;22.90;66.00;;;;;;6213188;23;1175;-67
2022/08/14 06:12:21;;;;;;;;;;;22.90;66.00;;;;;;6214946;23;879;-67
2022/08/14 06:14:46;;;;;;;;;;;22.90;66.00;;;;;;6214923;23;1175;-67
2022/08/14 06:17:11;;;;;;;;;;;22.90;66.00;;;;;;6214589;23;847;-68
2022/08/14 06:19:37;;;;;;;;;;;22.90;66.00;;;;;;6214656;23;1885;-65
2022/08/14 06:22:02;;;;;;;;;;;23.00;66.10;;;;;;6214816;23;840;-66
2022/08/14 06:24:28;;;;;;;;;;;23.00;66.10;;;;;;6214975;23;1246;-67
2022/08/14 06:26:53;;;;;;;;;;;22.90;66.10;;;;;;6214505;23;1058;-67
2022/08/14 06:29:19;;;;;;;;;;;22.90;66.10;;;;;;6215265;23;1037;-66
2022/08/14 06:31:44;;;;;;;;;;;22.90;66.10;;;;;;6214808;23;825;-66
2022/08/14 06:34:11;;;;;;;;;;;22.90;66.10;;;;;;6213636;23;1238;-66
2022/08/14 06:36:37;;;;;;;;;;;22.90;66.10;;;;;;6216264;23;825;-67
2022/08/14 06:39:03;;;;;;;;;;;22.90;66.20;;;;;;6215254;23;1925;-66
2022/08/14 06:41:28;;;;;;;;;;;22.90;66.20;;;;;;6216689;23;903;-66
2022/08/14 06:43:53;;;;;;;;;;;23.00;66.30;;;;;;6214757;23;1253;-66
2022/08/14 06:46:19;;;;;;;;;;;22.90;66.30;;;;;;6216282;23;978;-66
2022/08/14 06:48:44;;;;;;;;;;;22.90;66.20;;;;;;6216638;23;1026;-66
2022/08/14 06:51:10;;;;;;;;;;;23.00;66.30;;;;;;6214864;23;1258;-66
2022/08/14 06:53:35;;;;;;;;;;;22.90;66.30;;;;;;6216369;23;1275;-66
2022/08/14 06:56:01;;;;;;;;;;;22.90;66.20;;;;;;6216238;23;1034;-64
2022/08/14 06:58:26;;;;;;;;;;;23.00;66.30;;;;;;6214831;23;1901;-65
2022/08/14 07:06:20;;;;;;;;;;;22.90;66.30;;;;;;6216154;23;610;-66
2022/08/14 07:08:45;;;;;;;;;;;22.90;66.30;;;;;;6213766;23;835;-67
2022/08/14 07:11:11;;;;;;;;;;;22.90;66.30;;;;;;6214977;23;1002;-67
2022/08/14 07:13:36;;;;;;;;;;;23.00;66.40;;;;;;6216332;23;1274;-67
2022/08/14 07:16:02;;;;;;;;;;;23.00;66.40;;;;;;6215977;23;914;-67
2022/08/14 07:18:28;;;;;;;;;;;22.90;66.30;;;;;;6216303;23;1996;-67
2022/08/14 07:20:53;;;;;;;;;;;23.00;66.40;;;;;;6214931;23;860;-67
2022/08/14 07:23:20;;;;;;;;;;;22.90;66.30;;;;;;6214742;23;1278;-68
2022/08/14 07:25:45;;;;;;;;;;;22.90;66.30;;;;;;6216204;23;843;-65
2022/08/14 07:28:14;;;;;;;;;;;22.90;66.30;;;;;;6214939;23;840;-65
2022/08/14 07:30:40;;;;;;;;;;;22.90;66.30;;;;;;6216405;23;937;-65
2022/08/14 07:33:06;;;;;;;;;;;22.90;66.40;;;;;;6216147;23;1281;-65
2022/08/14 07:35:31;;;;;;;;;;;22.90;66.40;;;;;;6214373;23;1033;-68
2022/08/14 07:37:57;;;;;;;;;;;22.90;66.40;;;;;;6216387;23;816;-68
2022/08/14 07:40:22;;;;;;;;;;;22.90;66.40;;;;;;6214775;23;1928;-68
2022/08/14 07:42:48;;;;;;;;;;;22.90;66.50;;;;;;6215833;23;1278;-67
2022/08/14 07:45:13;;;;;;;;;;;23.00;66.50;;;;;;6214500;23;1050;-67
2022/08/14 07:47:40;;;;;;;;;;;22.90;66.40;;;;;;6215637;23;989;-67
2022/08/14 07:50:10;;;;;;;;;;;22.90;66.40;;;;;;6216367;23;828;-67
2022/08/14 07:52:36;;;;;;;;;;;22.90;66.50;;;;;;6214698;23;844;-67
2022/08/14 07:55:01;;;;;;;;;;;22.90;66.40;;;;;;6214632;23;1226;-68
2022/08/14 07:57:27;;;;;;;;;;;22.90;66.40;;;;;;6214396;23;776;-68
2022/08/14 07:59:52;;;;;;;;;;;22.90;66.40;;;;;;6215867;23;1897;-68
2022/08/14 08:02:18;;;;;;;;;;;22.90;66.40;;;;;;6216047;23;1009;-66
2022/08/14 08:04:44;;;;;;;;;;;22.90;66.40;;;;;;6214363;23;1186;-66
2022/08/14 08:07:10;;;;;;;;;;;22.90;66.40;;;;;;6215720;23;840;-66
2022/08/14 08:09:35;;;;;;;;;;;22.90;66.50;;;;;;6214189;23;1013;-66
2022/08/14 08:12:01;;;;;;;;;;;22.90;66.40;;;;;;6214459;23;800;-66
2022/08/14 08:14:26;;;;;;;;;;;22.90;66.40;;;;;;6215990;23;1226;-66
2022/08/14 08:16:52;;;;;;;;;;;23.00;66.50;;;;;;6189000;23;808;-68
2022/08/14 08:19:17;;;;;;;;;;;22.90;66.50;;;;;;6214356;23;1888;-68
2022/08/14 08:21:44;;;;;;;;;;;22.90;66.50;;;;;;6216027;23;839;-68
2022/08/14 08:24:10;;;;;;;;;;;22.90;66.50;;;;;;6215651;23;1273;-68
2022/08/14 08:26:35;;;;;;;;;;;22.90;66.50;;;;;;6215457;23;769;-68
2022/08/14 08:29:00;;;;;;;;;;;22.90;66.50;;;;;;6215667;23;990;-68
2022/08/14 08:31:26;;;;;;;;;;;22.90;66.50;;;;;;6215635;23;776;-68
2022/08/14 08:33:52;;;;;;;;;;;22.90;66.50;;;;;;6215515;23;1288;-68
2022/08/14 08:36:17;;;;;;;;;;;22.90;66.80;;;;;;6213922;23;839;-68
2022/08/14 08:38:44;;;;;;;;;;;22.90;66.50;;;;;;6210894;23;1889;-68
2022/08/14 08:41:10;;;;;;;;;;;22.90;66.50;;;;;;6214268;23;811;-68
2022/08/14 08:43:35;;;;;;;;;;;22.90;66.50;;;;;;6215092;23;1285;-68
2022/08/14 08:46:05;;;;;;;;;;;23.00;66.60;;;;;;6212772;23;795;-68
2022/08/14 08:48:42;;;;;;;;;;;22.90;66.50;;;;;;6213918;23;930;-68
2022/08/14 08:51:07;;;;;;;;;;;22.90;66.50;;;;;;6213700;23;899;-66
2022/08/14 08:53:33;;;;;;;;;;;22.90;66.50;;;;;;6214671;23;1210;-67
2022/08/14 08:55:59;;;;;;;;;;;22.90;66.50;;;;;;6187324;23;1412;-67
2022/08/14 08:58:24;;;;;;;;;;;22.90;66.50;;;;;;6212557;23;1949;-68
2022/08/14 09:00:50;;;;;;;;;;;22.90;66.60;;;;;;6213114;23;820;-67
2022/08/14 09:03:20;;;;;;;;;;;22.90;66.50;;;;;;6214007;23;1215;-67
2022/08/14 09:05:55;;;;;;;;;;;22.90;66.60;;;;;;6214811;23;816;-66
2022/08/14 09:08:21;;;;;;;;;;;22.90;66.60;;;;;;6213090;23;843;-69
2022/08/14 09:10:47;;;;;;;;;;;22.90;66.60;;;;;;6213780;23;835;-67
2022/08/14 09:13:14;;;;;;;;;;;22.90;66.60;;;;;;6213673;23;1211;-68
2022/08/14 09:15:40;;;;;;;;;;;22.90;66.60;;;;;;6213397;23;804;-67
2022/08/14 09:18:06;;;;;;;;;;;23.00;66.70;;;;;;6212722;23;1889;-68
2022/08/14 09:20:31;;;;;;;;;;;23.00;66.70;;;;;;6213431;23;831;-67
2022/08/14 09:22:57;;;;;;;;;;;22.90;66.60;;;;;;6214737;23;1277;-67
2022/08/14 09:25:22;;;;;;;;;;;22.90;66.60;;;;;;6214689;23;938;-67
2022/08/14 09:27:48;;;;;;;;;;;23.00;66.70;;;;;;6213656;23;962;-67
2022/08/14 09:30:14;;;;;;;;;;;23.00;66.60;;;;;;6214290;23;816;-67
2022/08/14 09:33:05;;;;;;;;;;;22.90;66.60;;;;;;6215148;23;1009;-68
2022/08/14 09:35:31;;;;;;;;;;;23.00;66.70;;;;;;6208335;23;1109;-67
2022/08/14 09:38:03;;;;;;;;;;;22.90;66.60;;;;;;6215154;23;947;-67
2022/08/14 09:40:46;;;;;;;;;;;22.90;66.60;;;;;;6213062;23;1171;-68
2022/08/14 09:43:15;;;;;;;;;;;23.00;66.70;;;;;;6188108;23;1352;-67
2022/08/14 09:45:45;;;;;;;;;;;22.90;66.60;;;;;;6213850;23;1397;-67
2022/08/14 09:48:15;;;;;;;;;;;22.90;66.60;;;;;;6209876;23;846;-68
2022/08/14 09:50:45;;;;;;;;;;;23.00;66.70;;;;;;6213741;23;799;-65
2022/08/14 09:53:11;;;;;;;;;;;22.90;66.70;;;;;;6214855;23;1274;-64
2022/08/14 09:55:37;;;;;;;;;;;22.90;66.70;;;;;;6213511;23;1081;-65
2022/08/14 09:58:10;;;;;;;;;;;23.00;66.70;;;;;;6215086;23;792;-64
2022/08/14 10:00:43;;;;;;;;;;;23.00;66.70;;;;;;6215185;23;738;-65
2022/08/14 10:03:09;;;;;;;;;;;22.90;66.70;;;;;;6213437;23;1290;-66
2022/08/14 10:05:34;;;;;;;;;;;22.90;66.70;;;;;;6214888;23;815;-69
2022/08/14 10:08:00;;;;;;;;;;;22.90;66.70;;;;;;6215026;23;796;-66
2022/08/14 10:10:30;;;;;;;;;;;22.90;66.70;;;;;;6214980;23;835;-66
2022/08/14 10:12:56;;;;;;;;;;;22.90;66.70;;;;;;6215258;23;1277;-66
2022/08/14 10:15:23;;;;;;;;;;;22.90;66.70;;;;;;6215444;23;843;-67
2022/08/14 10:17:50;;;;;;;;;;;22.90;66.70;;;;;;6215454;23;816;-66
2022/08/14 10:20:19;;;;;;;;;;;22.90;66.70;;;;;;6215489;23;1885;-66
2022/08/14 10:22:45;;;;;;;;;;;22.90;66.70;;;;;;6215605;23;1202;-66
2022/08/14 10:25:13;;;;;;;;;;;23.00;66.80;;;;;;6215389;23;1498;-67
2022/08/14 10:27:38;;;;;;;;;;;22.90;66.70;;;;;;6216465;23;844;-68
2022/08/14 10:30:10;;;;;;;;;;;22.90;66.70;;;;;;6215222;23;1025;-69
2022/08/14 10:32:42;;;;;;;;;;;23.00;66.70;;;;;;6215347;23;832;-66
2022/08/14 10:35:08;;;;;;;;;;;22.90;66.70;;;;;;6216637;23;844;-65
2022/08/14 10:37:37;;;;;;;;;;;22.90;66.70;;;;;;6214954;23;899;-67
2022/08/14 10:40:03;;;;;;;;;;;22.90;66.70;;;;;;6216387;23;1932;-67
2022/08/14 10:42:55;;;;;;;;;;;22.90;66.60;;;;;;6215057;23;1117;-66
2022/08/14 10:45:22;;;;;;;;;;;22.90;66.60;;;;;;6211031;23;984;-67
2022/08/14 10:47:48;;;;;;;;;;;22.90;66.60;;;;;;6189776;23;1569;-69
2022/08/14 10:50:14;;;;;;;;;;;22.90;66.60;;;;;;6215161;23;836;-66
2022/08/14 10:52:40;;;;;;;;;;;23.00;66.70;;;;;;6216378;23;847;-66
2022/08/14 10:55:12;;;;;;;;;;;23.00;66.70;;;;;;6214414;23;1238;-66
2022/08/14 10:57:47;;;;;;;;;;;22.90;66.70;;;;;;6214736;23;832;-66
2022/08/14 11:00:13;;;;;;;;;;;22.90;66.70;;;;;;6216336;23;1892;-66
2022/08/14 11:02:39;;;;;;;;;;;23.00;66.70;;;;;;6214642;23;863;-68
2022/08/14 11:05:06;;;;;;;;;;;23.00;67.50;;;;;;6214431;23;1290;-68
2022/08/14 11:07:32;;;;;;;;;;;23.00;66.80;;;;;;6216224;23;856;-67
2022/08/14 11:09:58;;;;;;;;;;;22.90;66.70;;;;;;6216559;23;832;-67
2022/08/14 11:12:25;;;;;;;;;;;23.00;66.80;;;;;;6215095;23;793;-67
2022/08/14 11:14:54;;;;;;;;;;;22.90;66.70;;;;;;6214073;23;1278;-66
2022/08/14 11:17:19;;;;;;;;;;;22.90;66.70;;;;;;6216087;23;795;-66
2022/08/14 11:19:45;;;;;;;;;;;22.90;66.70;;;;;;6214257;23;1926;-65
2022/08/14 11:22:10;;;;;;;;;;;22.90;66.70;;;;;;6214771;23;951;-66
2022/08/14 11:24:36;;;;;;;;;;;22.90;66.80;;;;;;6216021;23;1260;-66
2022/08/14 11:27:01;;;;;;;;;;;23.00;66.80;;;;;;6214184;23;1061;-66
2022/08/14 11:29:27;;;;;;;;;;;23.00;66.80;;;;;;6214405;23;851;-66
2022/08/14 11:31:53;;;;;;;;;;;22.90;66.80;;;;;;6214448;23;1320;-65
2022/08/14 11:34:18;;;;;;;;;;;22.90;66.80;;;;;;6215572;23;1320;-65
2022/08/14 11:36:44;;;;;;;;;;;23.00;66.90;;;;;;6215856;23;880;-65
2022/08/14 11:39:16;;;;;;;;;;;22.90;66.70;;;;;;6215731;23;1938;-65
2022/08/14 11:41:43;;;;;;;;;;;23.00;66.80;;;;;;6216153;23;828;-66
2022/08/14 11:44:08;;;;;;;;;;;22.90;66.70;;;;;;6215721;23;1285;-65
2022/08/14 11:46:34;;;;;;;;;;;22.90;66.70;;;;;;6215692;23;850;-66
2022/08/14 11:49:01;;;;;;;;;;;23.00;66.80;;;;;;6216189;23;831;-65
2022/08/14 11:51:27;;;;;;;;;;;22.90;66.70;;;;;;6216080;23;863;-65
2022/08/14 11:53:56;;;;;;;;;;;22.90;66.70;;;;;;6214120;23;1305;-66
2022/08/14 11:56:22;;;;;;;;;;;23.00;66.80;;;;;;6215452;23;831;-67
2022/08/14 11:58:51;;;;;;;;;;;22.90;66.70;;;;;;6214043;23;1938;-66
2022/08/14 12:01:24;;;;;;;;;;;22.90;66.70;;;;;;6214481;23;745;-66
2022/08/14 12:03:50;;;;;;;;;;;22.90;66.70;;;;;;6214002;23;1305;-66
2022/08/14 12:06:16;;;;;;;;;;;22.90;66.70;;;;;;6215308;23;839;-66
2022/08/14 12:08:41;;;;;;;;;;;22.90;66.70;;;;;;6214547;23;840;-65
2022/08/14 12:11:08;;;;;;;;;;;22.90;66.70;;;;;;6215890;23;845;-66
2022/08/14 12:13:33;;;;;;;;;;;22.90;66.80;;;;;;6189080;23;1639;-66
2022/08/14 12:16:03;;;;;;;;;;;23.00;66.80;;;;;;6215043;23;1013;-64
2022/08/14 12:18:33;;;;;;;;;;;22.90;66.80;;;;;;6214168;23;1936;-65
2022/08/14 12:21:09;;;;;;;;;;;22.90;66.80;;;;;;6215944;23;755;-66
2022/08/14 12:23:34;;;;;;;;;;;22.90;66.80;;;;;;6214178;23;1342;-65
2022/08/14 12:26:03;;;;;;;;;;;22.90;66.80;;;;;;6213591;23;1046;-67
2022/08/14 12:28:29;;;;;;;;;;;22.90;66.80;;;;;;6215339;23;807;-66
2022/08/14 12:30:54;;;;;;;;;;;23.00;66.80;;;;;;6215580;23;884;-66
2022/08/14 12:33:24;;;;;;;;;;;22.90;66.80;;;;;;6215287;23;1282;-66
2022/08/14 12:35:50;;;;;;;;;;;22.90;66.80;;;;;;6215604;23;800;-66
2022/08/14 12:38:15;;;;;;;;;;;22.90;66.80;;;;;;6215437;23;1936;-66
2022/08/14 12:41:00;;;;;;;;;;;22.90;66.80;;;;;;6215378;23;859;-67
2022/08/14 12:43:25;;;;;;;;;;;22.90;66.80;;;;;;6201921;23;1294;-66
2022/08/14 12:45:53;;;;;;;;;;;23.00;66.90;;;;;;6211528;23;903;-65
2022/08/14 12:48:19;;;;;;;;;;;22.90;66.80;;;;;;6213007;23;835;-66
2022/08/14 12:50:45;;;;;;;;;;;23.00;66.90;;;;;;6211594;23;839;-66
2022/08/14 12:53:11;;;;;;;;;;;23.00;66.90;;;;;;6212815;23;1214;-64
2022/08/14 12:55:37;;;;;;;;;;;23.00;66.90;;;;;;6211962;23;804;-65
2022/08/14 12:58:04;;;;;;;;;;;22.90;66.80;;;;;;6211290;23;1100;-66
2022/08/14 13:00:30;;;;;;;;;;;22.90;66.80;;;;;;6213066;23;1944;-66
2022/08/14 13:02:55;;;;;;;;;;;22.90;66.80;;;;;;6213128;23;1269;-67
2022/08/14 13:05:22;;;;;;;;;;;22.90;66.80;;;;;;6212888;23;846;-66
2022/08/14 13:07:50;;;;;;;;;;;23.00;66.80;;;;;;6212412;23;1013;-68
2022/08/14 13:10:24;;;;;;;;;;;22.90;66.80;;;;;;6211610;23;963;-67
2022/08/14 13:12:50;;;;;;;;;;;23.00;66.80;;;;;;6210748;23;1312;-66
2022/08/14 13:15:19;;;;;;;;;;;23.00;66.90;;;;;;6213422;23;772;-66
2022/08/14 13:17:48;;;;;;;;;;;22.90;66.80;;;;;;6211076;23;847;-66
2022/08/14 13:20:15;;;;;;;;;;;23.00;66.80;;;;;;6210532;23;1956;-68
2022/08/14 13:22:43;;;;;;;;;;;23.00;66.90;;;;;;6212038;23;1076;-67
2022/08/14 13:25:10;;;;;;;;;;;22.90;66.80;;;;;;6210553;23;1163;-67
2022/08/14 13:27:36;;;;;;;;;;;23.00;66.90;;;;;;6210042;23;804;-68
2022/08/14 13:30:03;;;;;;;;;;;23.00;66.90;;;;;;6209091;23;729;-70
2022/08/14 13:32:28;;;;;;;;;;;22.90;66.90;;;;;;6212195;23;1069;-69
2022/08/14 13:34:54;;;;;;;;;;;23.00;66.90;;;;;;6211978;23;1190;-68
2022/08/14 13:37:19;;;;;;;;;;;23.00;66.90;;;;;;6206973;23;828;-67
2022/08/14 13:39:46;;;;;;;;;;;23.00;66.90;;;;;;6211060;23;1893;-67
2022/08/14 13:42:13;;;;;;;;;;;23.00;66.90;;;;;;6211884;23;843;-67
2022/08/14 13:44:39;;;;;;;;;;;23.00;66.90;;;;;;6214939;23;1277;-67
2022/08/14 13:47:05;;;;;;;;;;;23.00;66.90;;;;;;6216241;23;800;-67
2022/08/14 13:49:31;;;;;;;;;;;23.00;66.90;;;;;;6214461;23;755;-68
2022/08/14 13:51:57;;;;;;;;;;;23.00;67.00;;;;;;6216421;23;796;-68
2022/08/14 13:54:23;;;;;;;;;;;23.00;67.00;;;;;;6216791;23;1286;-68
2022/08/14 13:56:49;;;;;;;;;;;23.00;67.00;;;;;;6189583;23;1253;-68
2022/08/14 13:59:14;;;;;;;;;;;23.00;66.90;;;;;;6216139;23;1901;-68
2022/08/14 14:01:43;;;;;;;;;;;23.00;67.00;;;;;;6216913;23;852;-68
2022/08/14 14:04:10;;;;;;;;;;;23.00;67.00;;;;;;6216570;23;1287;-68
2022/08/14 14:06:35;;;;;;;;;;;23.00;66.90;;;;;;6216606;23;925;-68
2022/08/14 14:09:00;;;;;;;;;;;23.00;66.90;;;;;;6214781;23;792;-68
2022/08/14 14:11:26;;;;;;;;;;;23.00;67.00;;;;;;6215385;23;856;-68
2022/08/14 14:13:55;;;;;;;;;;;23.00;66.90;;;;;;6214924;23;1210;-68
2022/08/14 14:16:21;;;;;;;;;;;23.00;67.00;;;;;;6214774;23;839;-68
2022/08/14 14:18:50;;;;;;;;;;;23.00;67.00;;;;;;6216442;23;1922;-68
2022/08/14 14:21:16;;;;;;;;;;;23.00;66.90;;;;;;6216718;23;837;-68
2022/08/14 14:23:43;;;;;;;;;;;23.00;66.90;;;;;;6214932;23;1297;-68
2022/08/14 14:26:09;;;;;;;;;;;23.00;66.90;;;;;;6216759;23;832;-68
2022/08/14 14:28:35;;;;;;;;;;;23.00;66.90;;;;;;6215683;23;820;-68
2022/08/14 14:31:00;;;;;;;;;;;23.00;66.90;;;;;;6215161;23;1019;-68
2022/08/14 14:33:26;;;;;;;;;;;23.00;66.90;;;;;;6214813;23;1194;-68
2022/08/14 14:35:51;;;;;;;;;;;23.00;66.90;;;;;;6214870;23;836;-68
2022/08/14 14:38:17;;;;;;;;;;;23.00;66.90;;;;;;6214565;23;1885;-68
2022/08/14 14:40:44;;;;;;;;;;;23.00;66.90;;;;;;6216360;23;789;-68
2022/08/14 14:43:10;;;;;;;;;;;23.00;66.90;;;;;;6214502;23;1300;-68
2022/08/14 14:45:35;;;;;;;;;;;23.00;67.00;;;;;;6213101;23;884;-67